createdAt,value
2018-02-13T00:00:34.210Z,10.02
2018-02-13T00:01:41.203Z,9.30
2018-02-13T00:02:47.931Z,9.20
2018-02-13T00:03:54.703Z,8.95
2018-02-13T00:05:01.583Z,9.25
2018-02-13T00:06:07.445Z,8.45
2018-02-13T00:07:14.192Z,8.30
2018-02-13T00:08:20.795Z,9.43
2018-02-13T00:09:28.039Z,8.70
2018-02-13T00:10:34.859Z,8.65
2018-02-13T00:11:41.840Z,8.65
2018-02-13T00:12:52.702Z,10.07
2018-02-13T00:14:00.286Z,9.27
2018-02-13T00:15:07.839Z,9.45
2018-02-13T00:16:14.590Z,9.85
2018-02-13T00:17:21.194Z,9.05
2018-02-13T00:18:29.684Z,8.32
2018-02-13T00:19:36.832Z,10.82
2018-02-13T00:20:43.829Z,10.07
2018-02-13T00:21:50.803Z,9.38
2018-02-13T00:23:02.644Z,9.90
2018-02-13T00:24:10.426Z,9.82
2018-02-13T00:25:17.223Z,10.30
2018-02-13T00:26:24.073Z,9.32
2018-02-13T00:27:31.607Z,10.70
2018-02-13T00:28:38.610Z,10.45
2018-02-13T00:29:45.024Z,10.95
2018-02-13T00:30:51.120Z,9.75
2018-02-13T00:32:02.905Z,10.07
2018-02-13T00:33:09.427Z,10.27
2018-02-13T00:34:16.018Z,10.15
2018-02-13T00:35:22.788Z,10.75
2018-02-13T00:36:29.097Z,11.57
2018-02-13T00:37:35.273Z,10.82
2018-02-13T00:38:41.772Z,10.50
2018-02-13T00:39:48.216Z,10.27
2018-02-13T00:40:54.922Z,10.18
2018-02-13T00:42:01.515Z,9.68
2018-02-13T00:43:08.149Z,10.15
2018-02-13T00:44:14.372Z,9.93
2018-02-13T00:45:20.704Z,10.05
2018-02-13T00:46:27.020Z,9.95
2018-02-13T00:47:33.488Z,10.18
2018-02-13T00:48:40.148Z,9.55
2018-02-13T00:49:46.574Z,11.10
2018-02-13T00:50:53.246Z,9.68
2018-02-13T00:52:01.025Z,10.07
2018-02-13T00:53:07.388Z,9.90
2018-02-13T00:54:14.206Z,10.50
2018-02-13T00:55:20.699Z,10.43
2018-02-13T00:56:27.365Z,11.35
2018-02-13T00:57:33.829Z,10.70
2018-02-13T00:58:40.284Z,10.70
2018-02-13T00:59:47.205Z,12.48
2018-02-13T01:00:53.761Z,10.70
2018-02-13T01:02:01.025Z,10.60
2018-02-13T01:03:07.655Z,12.15
2018-02-13T01:04:14.293Z,11.60
2018-02-13T01:05:20.762Z,11.20
2018-02-13T01:06:27.606Z,11.38
2018-02-13T01:07:34.836Z,11.57
2018-02-13T01:08:41.609Z,10.25
2018-02-13T01:09:48.282Z,10.25
2018-02-13T01:10:55.310Z,11.48
2018-02-13T01:12:07.951Z,10.57
2018-02-13T01:13:14.822Z,11.05
2018-02-13T01:14:21.629Z,11.15
2018-02-13T01:15:28.531Z,11.63
2018-02-13T01:16:36.709Z,11.25
2018-02-13T01:17:43.703Z,10.85
2018-02-13T01:18:50.800Z,10.30
2018-02-13T01:20:02.516Z,11.05
2018-02-13T01:21:14.865Z,11.88
2018-02-13T01:22:22.159Z,11.43
2018-02-13T01:23:30.219Z,11.63
2018-02-13T01:24:38.441Z,11.52
2018-02-13T01:25:45.285Z,11.90
2018-02-13T01:26:52.726Z,11.12
2018-02-13T01:27:59.194Z,11.38
2018-02-13T01:29:06.065Z,11.12
2018-02-13T01:30:13.220Z,11.73
2018-02-13T01:31:20.880Z,11.48
2018-02-13T01:32:29.349Z,13.07
2018-02-13T01:33:36.142Z,11.95
2018-02-13T01:34:43.228Z,12.45
2018-02-13T01:35:50.016Z,12.23
2018-02-13T01:36:56.736Z,11.77
2018-02-13T01:38:04.613Z,12.80
2018-02-13T01:39:11.986Z,12.63
2018-02-13T01:40:19.104Z,11.43
2018-02-13T01:41:30.877Z,13.35
2018-02-13T01:42:40.457Z,11.88
2018-02-13T01:43:47.296Z,10.70
2018-02-13T01:44:54.045Z,13.05
2018-02-13T01:46:03.800Z,13.55
2018-02-13T01:47:11.098Z,12.00
2018-02-13T01:48:18.037Z,12.73
2018-02-13T01:49:24.861Z,13.35
2018-02-13T01:50:32.856Z,12.65
2018-02-13T01:51:39.711Z,12.60
2018-02-13T01:52:53.454Z,13.23
2018-02-13T01:54:00.967Z,13.20
2018-02-13T01:55:08.655Z,12.80
2018-02-13T01:56:15.477Z,13.00
2018-02-13T01:57:22.319Z,13.62
2018-02-13T01:58:29.012Z,12.37
2018-02-13T01:59:35.667Z,13.98
2018-02-13T02:00:41.912Z,12.48
2018-02-13T02:01:48.159Z,12.80
2018-02-13T02:02:54.722Z,13.20
2018-02-13T02:04:02.074Z,13.13
2018-02-13T02:05:08.478Z,13.20
2018-02-13T02:06:15.131Z,13.85
2018-02-13T02:07:21.922Z,14.32
2018-02-13T02:08:28.330Z,13.75
2018-02-13T02:09:34.875Z,13.30
2018-02-13T02:10:41.342Z,13.98
2018-02-13T02:11:48.117Z,14.77
2018-02-13T02:12:54.688Z,14.85
2018-02-13T02:14:02.062Z,15.60
2018-02-13T02:15:09.055Z,13.75
2018-02-13T02:16:15.856Z,14.07
2018-02-13T02:17:22.774Z,14.20
2018-02-13T02:18:29.192Z,14.45
2018-02-13T02:19:35.577Z,14.30
2018-02-13T02:20:41.606Z,14.60
2018-02-13T02:21:48.038Z,14.32
2018-02-13T02:22:54.328Z,14.98
2018-02-13T02:24:01.849Z,13.70
2018-02-13T02:25:08.161Z,13.40
2018-02-13T02:26:14.635Z,14.55
2018-02-13T02:27:21.042Z,16.08
2018-02-13T02:28:27.525Z,15.30
2018-02-13T02:29:34.055Z,14.40
2018-02-13T02:30:40.690Z,14.98
2018-02-13T02:31:54.702Z,14.07
2018-02-13T02:33:01.498Z,13.25
2018-02-13T02:34:10.856Z,14.65
2018-02-13T02:35:20.393Z,14.45
2018-02-13T02:36:27.118Z,14.30
2018-02-13T02:37:33.825Z,15.00
2018-02-13T02:38:40.537Z,13.93
2018-02-13T02:39:47.350Z,13.65
2018-02-13T02:40:53.960Z,14.10
2018-02-13T02:42:01.066Z,14.65
2018-02-13T02:43:08.266Z,13.82
2018-02-13T02:44:15.645Z,14.00
2018-02-13T02:45:22.049Z,14.18
2018-02-13T02:46:28.484Z,15.00
2018-02-13T02:47:35.082Z,14.23
2018-02-13T02:48:41.477Z,16.08
2018-02-13T02:49:47.861Z,13.95
2018-02-13T02:50:54.353Z,13.43
2018-02-13T02:52:01.277Z,15.57
2018-02-13T02:53:07.648Z,14.25
2018-02-13T02:54:14.367Z,15.13
2018-02-13T02:55:20.725Z,14.90
2018-02-13T02:56:27.102Z,15.73
2018-02-13T02:57:34.045Z,15.13
2018-02-13T02:58:40.385Z,15.85
2018-02-13T02:59:46.758Z,15.00
2018-02-13T03:00:53.140Z,14.27
2018-02-13T03:01:59.853Z,16.48
2018-02-13T03:03:06.072Z,14.80
2018-02-13T03:04:12.837Z,15.40
2018-02-13T03:05:19.660Z,15.50
2018-02-13T03:06:26.454Z,15.95
2018-02-13T03:07:33.134Z,15.18
2018-02-13T03:08:39.937Z,14.43
2018-02-13T03:09:46.727Z,14.65
2018-02-13T03:10:53.114Z,15.75
2018-02-13T03:11:59.610Z,15.30
2018-02-13T03:13:12.568Z,14.68
2018-02-13T03:14:20.943Z,15.27
2018-02-13T03:15:27.298Z,15.05
2018-02-13T03:16:35.785Z,15.85
2018-02-13T03:17:42.314Z,16.55
2018-02-13T03:18:49.257Z,16.50
2018-02-13T03:19:55.348Z,14.77
2018-02-13T03:21:02.119Z,16.40
2018-02-13T03:22:08.694Z,16.48
2018-02-13T03:23:15.044Z,16.35
2018-02-13T03:24:22.367Z,16.08
2018-02-13T03:25:28.928Z,16.67
2018-02-13T03:26:35.569Z,16.80
2018-02-13T03:27:42.252Z,15.73
2018-02-13T03:28:49.438Z,16.17
2018-02-13T03:29:56.416Z,15.18
2018-02-13T03:31:03.932Z,16.25
2018-02-13T03:32:10.937Z,15.65
2018-02-13T03:33:17.880Z,16.40
2018-02-13T03:34:24.337Z,16.65
2018-02-13T03:35:30.809Z,15.93
2018-02-13T03:36:38.328Z,15.55
2018-02-13T03:37:45.115Z,15.38
2018-02-13T03:38:51.997Z,15.43
2018-02-13T03:39:58.893Z,16.42
2018-02-13T03:41:06.626Z,16.10
2018-02-13T03:42:15.340Z,16.17
2018-02-13T03:43:24.537Z,15.15
2018-02-13T03:44:31.784Z,16.62
2018-02-13T03:45:43.709Z,16.30
2018-02-13T03:46:50.360Z,14.75
2018-02-13T03:48:01.990Z,16.48
2018-02-13T03:49:08.989Z,15.35
2018-02-13T03:50:19.128Z,16.73
2018-02-13T03:51:25.819Z,15.85
2018-02-13T03:52:32.606Z,16.33
2018-02-13T03:53:39.703Z,16.62
2018-02-13T03:54:45.874Z,16.48
2018-02-13T03:55:52.740Z,15.27
2018-02-13T03:56:59.503Z,16.40
2018-02-13T03:58:06.890Z,17.30
2018-02-13T03:59:13.582Z,16.10
2018-02-13T04:00:20.972Z,16.15
2018-02-13T04:01:28.211Z,17.08
2018-02-13T04:02:35.974Z,15.50
2018-02-13T04:03:42.724Z,16.48
2018-02-13T04:04:49.985Z,16.20
2018-02-13T04:05:57.446Z,15.73
2018-02-13T04:07:06.569Z,15.60
2018-02-13T04:08:13.763Z,17.37
2018-02-13T04:09:20.599Z,16.27
2018-02-13T04:10:27.910Z,16.67
2018-02-13T04:11:34.706Z,16.55
2018-02-13T04:12:41.639Z,16.40
2018-02-13T04:13:49.190Z,15.68
2018-02-13T04:14:56.222Z,15.65
2018-02-13T04:16:04.305Z,16.33
2018-02-13T04:17:12.026Z,15.07
2018-02-13T04:18:20.195Z,16.77
2018-02-13T04:19:27.159Z,16.75
2018-02-13T04:20:33.599Z,16.17
2018-02-13T04:21:40.679Z,17.58
2018-02-13T04:22:48.382Z,15.23
2018-02-13T04:23:56.725Z,17.27
2018-02-13T04:25:04.032Z,16.80
2018-02-13T04:26:11.020Z,15.50
2018-02-13T04:27:17.605Z,15.75
2018-02-13T04:28:24.327Z,15.13
2018-02-13T04:29:31.197Z,17.42
2018-02-13T04:30:37.839Z,15.93
2018-02-13T04:31:44.540Z,15.10
2018-02-13T04:32:51.142Z,15.73
2018-02-13T04:33:58.300Z,16.90
2018-02-13T04:35:07.562Z,15.38
2018-02-13T04:36:15.089Z,15.82
2018-02-13T04:37:25.327Z,16.12
2018-02-13T04:38:32.253Z,15.45
2018-02-13T04:39:39.285Z,15.15
2018-02-13T04:40:46.070Z,14.65
2018-02-13T04:41:52.979Z,16.27
2018-02-13T04:43:00.614Z,14.40
2018-02-13T04:44:09.521Z,16.23
2018-02-13T04:45:20.130Z,15.30
2018-02-13T04:46:31.474Z,15.98
2018-02-13T04:47:38.527Z,16.23
2018-02-13T04:48:47.244Z,15.50
2018-02-13T04:49:53.710Z,16.12
2018-02-13T04:51:02.361Z,15.52
2018-02-13T04:52:11.726Z,16.10
2018-02-13T04:53:19.527Z,16.80
2018-02-13T04:54:27.458Z,15.88
2018-02-13T04:55:36.972Z,15.02
2018-02-13T04:56:44.000Z,15.60
2018-02-13T04:57:50.437Z,17.62
2018-02-13T04:58:56.867Z,15.55
2018-02-13T05:00:04.998Z,16.27
2018-02-13T05:01:14.469Z,15.30
2018-02-13T05:02:25.156Z,15.45
2018-02-13T05:03:35.266Z,15.73
2018-02-13T05:04:43.581Z,15.75
2018-02-13T05:05:53.512Z,16.42
2018-02-13T05:08:19.618Z,15.70
2018-02-13T05:09:30.781Z,14.98
2018-02-13T05:10:39.482Z,16.45
2018-02-13T05:11:49.908Z,15.90
2018-02-13T05:12:57.787Z,15.02
2018-02-13T05:14:06.863Z,16.70
2018-02-13T05:15:15.504Z,15.75
2018-02-13T05:16:23.388Z,17.60
2018-02-13T05:17:31.476Z,16.77
2018-02-13T05:18:40.068Z,16.30
2018-02-13T05:19:47.617Z,16.83
2018-02-13T05:20:53.863Z,15.63
2018-02-13T05:22:00.302Z,16.23
2018-02-13T05:23:06.577Z,16.48
2018-02-13T05:24:20.629Z,15.35
2018-02-13T05:25:26.728Z,15.85
2018-02-13T05:26:33.138Z,16.92
2018-02-13T05:27:39.449Z,15.02
2018-02-13T05:28:45.742Z,16.90
2018-02-13T05:29:52.134Z,15.68
2018-02-13T05:30:59.172Z,15.55
2018-02-13T05:32:05.527Z,15.57
2018-02-13T05:33:11.713Z,15.48
2018-02-13T05:34:21.403Z,16.48
2018-02-13T05:35:28.159Z,16.90
2018-02-13T05:36:34.529Z,17.42
2018-02-13T05:37:40.766Z,15.23
2018-02-13T05:38:47.536Z,16.35
2018-02-13T05:39:57.069Z,16.35
2018-02-13T05:41:06.147Z,15.38
2018-02-13T05:42:16.415Z,16.62
2018-02-13T05:43:23.821Z,16.83
2018-02-13T05:44:34.675Z,15.13
2018-02-13T05:45:42.487Z,17.12
2018-02-13T05:46:51.627Z,16.35
2018-02-13T05:49:19.117Z,16.58
2018-02-13T05:50:25.350Z,17.15
2018-02-13T05:51:31.718Z,16.52
2018-02-13T05:52:37.988Z,15.38
2018-02-13T05:53:44.347Z,17.67
2018-02-13T05:54:50.608Z,15.68
2018-02-13T05:55:57.384Z,16.95
2018-02-13T05:57:04.192Z,16.85
2018-02-13T05:58:10.376Z,17.62
2018-02-13T05:59:16.597Z,17.70
2018-02-13T06:00:22.832Z,16.20
2018-02-13T06:01:29.055Z,17.00
2018-02-13T06:02:35.309Z,14.60
2018-02-13T06:03:41.529Z,15.32
2018-02-13T06:04:47.715Z,16.60
2018-02-13T06:05:53.911Z,16.40
2018-02-13T06:07:00.249Z,15.65
2018-02-13T06:08:06.762Z,15.68
2018-02-13T06:09:13.239Z,16.60
2018-02-13T06:10:19.584Z,15.82
2018-02-13T06:11:26.628Z,16.62
2018-02-13T06:12:33.836Z,15.73
2018-02-13T06:13:40.292Z,16.35
2018-02-13T06:14:46.841Z,16.45
2018-02-13T06:15:53.274Z,17.30
2018-02-13T06:17:00.075Z,16.05
2018-02-13T06:18:06.615Z,15.95
2018-02-13T06:19:13.218Z,15.55
2018-02-13T06:20:19.450Z,17.00
2018-02-13T06:21:25.735Z,14.95
2018-02-13T06:22:31.966Z,15.57
2018-02-13T06:23:38.173Z,16.25
2018-02-13T06:24:44.324Z,17.02
2018-02-13T06:25:50.576Z,16.35
2018-02-13T06:26:56.840Z,16.48
2018-02-13T06:28:03.175Z,16.98
2018-02-13T06:29:09.434Z,16.05
2018-02-13T06:30:15.635Z,16.02
2018-02-13T06:31:21.897Z,15.48
2018-02-13T06:32:28.369Z,15.93
2018-02-13T06:33:34.587Z,16.17
2018-02-13T06:34:40.795Z,15.98
2018-02-13T06:35:47.037Z,15.07
2018-02-13T06:36:53.327Z,15.90
2018-02-13T06:37:59.523Z,16.12
2018-02-13T06:39:05.154Z,15.25
2018-02-13T06:40:11.348Z,16.27
2018-02-13T06:41:17.558Z,15.40
2018-02-13T06:42:23.766Z,16.45
2018-02-13T06:43:30.000Z,16.02
2018-02-13T06:44:36.721Z,15.93
2018-02-13T06:45:42.934Z,14.80
2018-02-13T06:46:49.161Z,17.58
2018-02-13T06:47:55.461Z,16.08
2018-02-13T06:49:01.703Z,17.27
2018-02-13T06:50:07.997Z,16.67
2018-02-13T06:51:14.377Z,16.33
2018-02-13T06:52:20.579Z,15.15
2018-02-13T06:53:26.765Z,17.27
2018-02-13T06:54:33.000Z,17.45
2018-02-13T06:55:39.175Z,17.23
2018-02-13T06:56:45.359Z,17.15
2018-02-13T06:57:51.627Z,16.73
2018-02-13T06:58:57.825Z,16.70
2018-02-13T07:00:03.796Z,18.73
2018-02-13T07:01:09.987Z,16.62
2018-02-13T07:02:16.208Z,17.62
2018-02-13T07:03:22.443Z,16.55
2018-02-13T07:04:28.659Z,16.80
2018-02-13T07:05:34.894Z,16.45
2018-02-13T07:06:41.132Z,16.60
2018-02-13T07:07:47.306Z,16.50
2018-02-13T07:08:53.475Z,17.65
2018-02-13T07:09:59.695Z,16.95
2018-02-13T07:11:05.969Z,16.23
2018-02-13T07:12:13.022Z,16.52
2018-02-13T07:13:19.212Z,16.37
2018-02-13T07:14:25.476Z,16.77
2018-02-13T07:15:31.730Z,16.65
2018-02-13T07:16:38.274Z,17.23
2018-02-13T07:17:44.776Z,15.90
2018-02-13T07:18:51.016Z,16.75
2018-02-13T07:19:57.341Z,15.88
2018-02-13T07:21:03.262Z,15.80
2018-02-13T07:22:09.113Z,16.17
2018-02-13T07:23:15.405Z,15.93
2018-02-13T07:24:21.649Z,16.05
2018-02-13T07:25:27.822Z,17.77
2018-02-13T07:26:34.200Z,16.98
2018-02-13T07:27:40.375Z,16.35
2018-02-13T07:28:46.600Z,16.85
2018-02-13T07:29:52.798Z,14.75
2018-02-13T07:30:59.015Z,15.55
2018-02-13T07:32:05.207Z,16.25
2018-02-13T07:33:11.437Z,15.38
2018-02-13T07:34:17.673Z,16.67
2018-02-13T07:35:23.866Z,15.45
2018-02-13T07:36:30.083Z,16.05
2018-02-13T07:37:35.942Z,15.85
2018-02-13T07:38:42.145Z,16.40
2018-02-13T07:39:48.348Z,15.40
2018-02-13T07:40:54.516Z,16.10
2018-02-13T07:42:00.768Z,16.60
2018-02-13T07:43:06.986Z,15.02
2018-02-13T07:44:13.211Z,16.52
2018-02-13T07:45:19.428Z,15.77
2018-02-13T07:46:25.620Z,16.27
2018-02-13T07:47:31.856Z,16.20
2018-02-13T07:48:38.063Z,16.35
2018-02-13T07:49:44.268Z,16.05
2018-02-13T07:50:50.521Z,14.63
2018-02-13T07:51:56.762Z,16.17
2018-02-13T07:53:02.957Z,17.45
2018-02-13T07:54:09.179Z,16.52
2018-02-13T07:55:15.396Z,16.27
2018-02-13T07:56:21.576Z,17.77
2018-02-13T07:57:27.787Z,17.92
2018-02-13T07:58:34.048Z,20.15
2018-02-13T07:59:40.232Z,16.65
2018-02-13T08:00:46.434Z,17.17
2018-02-13T08:01:58.326Z,18.05
2018-02-13T08:03:04.647Z,18.35
2018-02-13T08:04:10.824Z,17.80
2018-02-13T08:05:17.087Z,17.02
2018-02-13T08:06:23.287Z,18.98
2018-02-13T08:07:29.570Z,16.87
2018-02-13T08:08:35.816Z,17.98
2018-02-13T08:09:42.105Z,18.60
2018-02-13T08:10:48.301Z,18.05
2018-02-13T08:11:54.491Z,16.83
2018-02-13T08:13:00.721Z,18.85
2018-02-13T08:14:07.004Z,18.90
2018-02-13T08:15:13.539Z,18.02
2018-02-13T08:16:19.754Z,20.80
2018-02-13T08:17:26.697Z,18.65
2018-02-13T08:18:33.731Z,18.15
2018-02-13T08:20:01.317Z,18.90
2018-02-13T08:21:07.467Z,16.62
2018-02-13T08:22:13.637Z,17.58
2018-02-13T08:23:19.994Z,18.20
2018-02-13T08:24:26.448Z,16.98
2018-02-13T08:25:39.136Z,16.48
2018-02-13T08:26:45.032Z,16.30
2018-02-13T08:27:51.265Z,17.27
2018-02-13T08:28:57.410Z,17.98
2018-02-13T08:30:03.970Z,16.62
2018-02-13T08:31:10.176Z,17.20
2018-02-13T08:32:16.423Z,17.20
2018-02-13T08:33:22.600Z,16.58
2018-02-13T08:34:29.062Z,16.08
2018-02-13T08:35:35.225Z,16.15
2018-02-13T08:36:41.479Z,17.05
2018-02-13T08:37:47.783Z,16.40
2018-02-13T08:38:53.924Z,16.73
2018-02-13T08:39:59.905Z,16.45
2018-02-13T08:41:06.077Z,17.45
2018-02-13T08:42:12.230Z,15.52
2018-02-13T08:43:18.432Z,16.20
2018-02-13T08:44:24.615Z,16.00
2018-02-13T08:45:30.798Z,15.68
2018-02-13T08:46:36.937Z,16.80
2018-02-13T08:47:43.078Z,17.67
2018-02-13T08:48:49.313Z,17.20
2018-02-13T08:49:55.469Z,17.15
2018-02-13T08:51:01.390Z,18.10
2018-02-13T08:52:07.560Z,17.33
2018-02-13T08:53:13.748Z,16.37
2018-02-13T08:54:19.985Z,17.25
2018-02-13T08:55:26.537Z,16.95
2018-02-13T08:56:32.691Z,16.98
2018-02-13T08:57:38.867Z,16.52
2018-02-13T08:58:45.012Z,16.70
2018-02-13T08:59:55.038Z,16.80
2018-02-13T09:01:01.180Z,15.80
2018-02-13T09:02:07.317Z,15.82
2018-02-13T09:03:13.507Z,17.15
2018-02-13T09:04:19.663Z,18.10
2018-02-13T09:05:25.891Z,16.12
2018-02-13T09:06:32.030Z,16.27
2018-02-13T09:07:38.216Z,16.25
2018-02-13T09:08:44.362Z,16.30
2018-02-13T09:09:50.515Z,15.45
2018-02-13T09:10:56.704Z,16.95
2018-02-13T09:12:02.899Z,16.20
2018-02-13T09:13:09.058Z,15.20
2018-02-13T09:14:15.230Z,16.30
2018-02-13T09:15:21.432Z,16.83
2018-02-13T09:16:27.633Z,15.82
2018-02-13T09:17:33.915Z,15.80
2018-02-13T09:18:40.099Z,15.75
2018-02-13T09:19:45.943Z,14.93
2018-02-13T09:20:52.081Z,16.58
2018-02-13T09:21:58.226Z,14.30
2018-02-13T09:23:04.398Z,14.48
2018-02-13T09:24:10.612Z,14.02
2018-02-13T09:25:16.810Z,14.40
2018-02-13T09:26:22.976Z,13.50
2018-02-13T09:27:29.180Z,12.15
2018-02-13T09:28:35.367Z,13.43
2018-02-13T09:29:41.532Z,12.98
2018-02-13T09:30:47.752Z,13.62
2018-02-13T09:31:53.924Z,13.00
2018-02-13T09:33:00.067Z,13.13
2018-02-13T09:34:06.263Z,13.30
2018-02-13T09:35:12.448Z,14.95
2018-02-13T09:36:18.646Z,13.45
2018-02-13T09:37:24.829Z,14.48
2018-02-13T09:38:30.999Z,12.85
2018-02-13T09:39:37.222Z,13.85
2018-02-13T09:40:43.438Z,12.80
2018-02-13T09:41:49.596Z,13.65
2018-02-13T09:42:55.799Z,13.25
2018-02-13T09:44:02.228Z,12.95
2018-02-13T09:45:08.372Z,12.75
2018-02-13T09:46:14.519Z,13.23
2018-02-13T09:47:21.012Z,13.88
2018-02-13T09:48:27.196Z,12.98
2018-02-13T09:49:33.475Z,13.10
2018-02-13T09:50:39.714Z,13.27
2018-02-13T09:51:45.927Z,13.82
2018-02-13T09:52:52.122Z,13.18
2018-02-13T09:53:58.296Z,14.23
2018-02-13T09:55:04.506Z,13.23
2018-02-13T09:56:10.680Z,13.40
2018-02-13T09:57:16.876Z,12.95
2018-02-13T09:58:23.017Z,13.23
2018-02-13T09:59:29.144Z,14.18
2018-02-13T10:00:35.315Z,12.52
2018-02-13T10:01:41.437Z,13.43
2018-02-13T10:02:47.450Z,13.40
2018-02-13T10:03:53.612Z,12.70
2018-02-13T10:04:59.795Z,13.50
2018-02-13T10:06:05.969Z,13.20
2018-02-13T10:07:12.183Z,13.70
2018-02-13T10:08:18.366Z,11.68
2018-02-13T10:09:24.549Z,12.65
2018-02-13T10:10:32.680Z,12.93
2018-02-13T10:11:38.851Z,12.30
2018-02-13T10:12:45.028Z,11.80
2018-02-13T10:13:51.228Z,12.02
2018-02-13T10:14:57.366Z,11.85
2018-02-13T10:16:03.536Z,12.20
2018-02-13T10:17:09.525Z,11.70
2018-02-13T10:18:15.715Z,12.90
2018-02-13T10:19:21.865Z,11.63
2018-02-13T10:20:27.856Z,11.60
2018-02-13T10:21:33.853Z,12.10
2018-02-13T10:22:39.803Z,12.35
2018-02-13T10:23:45.794Z,11.20
2018-02-13T10:24:51.963Z,10.95
2018-02-13T10:25:58.095Z,10.40
2018-02-13T10:27:04.299Z,12.52
2018-02-13T10:28:10.471Z,12.75
2018-02-13T10:29:16.650Z,10.23
2018-02-13T10:30:22.837Z,11.60
2018-02-13T10:31:28.980Z,10.65
2018-02-13T10:32:35.156Z,11.88
2018-02-13T10:33:41.312Z,10.93
2018-02-13T10:34:47.508Z,10.65
2018-02-13T10:35:53.692Z,11.82
2018-02-13T10:36:59.965Z,10.85
2018-02-13T10:38:06.098Z,11.75
2018-02-13T10:39:12.274Z,11.00
2018-02-13T10:40:18.436Z,11.30
2018-02-13T10:41:24.621Z,10.80
2018-02-13T10:42:31.395Z,11.82
2018-02-13T10:43:37.716Z,10.98
2018-02-13T10:44:43.861Z,10.70
2018-02-13T10:45:50.001Z,11.40
2018-02-13T10:46:56.220Z,11.57
2018-02-13T10:48:02.450Z,11.95
2018-02-13T10:49:08.859Z,11.12
2018-02-13T10:50:14.991Z,11.18
2018-02-13T10:51:21.103Z,11.25
2018-02-13T10:52:27.252Z,11.43
2018-02-13T10:53:33.424Z,11.75
2018-02-13T10:54:39.573Z,11.63
2018-02-13T10:55:45.736Z,11.43
2018-02-13T10:56:52.207Z,10.55
2018-02-13T10:57:58.449Z,11.15
2018-02-13T10:59:04.659Z,11.70
2018-02-13T11:00:10.542Z,10.50
2018-02-13T11:01:22.285Z,10.93
2018-02-13T11:02:27.748Z,11.05
2018-02-13T11:03:33.941Z,11.25
2018-02-13T11:04:40.319Z,10.07
2018-02-13T11:05:46.507Z,10.10
2018-02-13T11:06:52.757Z,10.60
2018-02-13T11:07:59.090Z,11.05
2018-02-13T11:09:04.601Z,10.68
2018-02-13T11:10:10.746Z,10.70
2018-02-13T11:11:16.961Z,10.43
2018-02-13T11:12:23.184Z,10.85
2018-02-13T11:13:29.344Z,9.05
2018-02-13T11:14:35.337Z,9.85
2018-02-13T11:15:41.533Z,10.82
2018-02-13T11:16:47.568Z,9.48
2018-02-13T11:17:53.713Z,11.02
2018-02-13T11:18:59.866Z,9.60
2018-02-13T11:20:06.038Z,10.20
2018-02-13T11:21:12.261Z,11.05
2018-02-13T11:22:18.148Z,10.23
2018-02-13T11:23:27.850Z,10.50
2018-02-13T11:24:34.134Z,10.48
2018-02-13T11:25:40.300Z,9.93
2018-02-13T11:26:46.455Z,11.48
2018-02-13T11:27:52.649Z,10.93
2018-02-13T11:28:58.797Z,11.43
2018-02-13T11:30:04.614Z,10.27
2018-02-13T11:31:11.131Z,10.13
2018-02-13T11:32:17.989Z,11.12
2018-02-13T11:33:23.908Z,10.38
2018-02-13T11:34:30.043Z,9.80
2018-02-13T11:35:36.304Z,10.63
2018-02-13T11:36:42.493Z,10.18
2018-02-13T11:37:48.673Z,10.48
2018-02-13T11:38:54.675Z,11.80
2018-02-13T11:40:00.575Z,9.23
2018-02-13T11:41:06.768Z,10.68
2018-02-13T11:42:12.971Z,10.00
2018-02-13T11:43:19.211Z,11.48
2018-02-13T11:44:25.536Z,11.30
2018-02-13T11:45:31.724Z,9.80
2018-02-13T11:46:37.828Z,11.30
2018-02-13T11:47:44.024Z,10.25
2018-02-13T11:48:50.153Z,10.40
2018-02-13T11:49:56.315Z,10.10
2018-02-13T11:51:02.920Z,10.05
2018-02-13T11:52:09.081Z,10.40
2018-02-13T11:53:15.229Z,10.32
2018-02-13T11:54:21.439Z,10.40
2018-02-13T11:55:27.558Z,11.10
2018-02-13T11:56:33.760Z,9.75
2018-02-13T11:57:40.098Z,10.23
2018-02-13T11:58:46.352Z,9.70
2018-02-13T11:59:52.497Z,10.80
2018-02-13T12:00:58.651Z,9.90
2018-02-13T12:02:04.570Z,11.48
2018-02-13T12:03:10.824Z,10.50
2018-02-13T12:04:17.074Z,9.30
2018-02-13T12:05:23.293Z,9.63
2018-02-13T12:06:29.591Z,9.00
2018-02-13T12:07:35.760Z,9.02
2018-02-13T12:08:41.891Z,9.30
2018-02-13T12:09:48.066Z,9.15
2018-02-13T12:11:01.026Z,10.00
2018-02-13T12:12:07.187Z,9.10
2018-02-13T12:13:13.149Z,9.70
2018-02-13T12:14:24.241Z,9.25
2018-02-13T12:15:30.404Z,8.50
2018-02-13T12:16:36.550Z,9.75
2018-02-13T12:17:42.746Z,8.98
2018-02-13T12:18:48.942Z,10.07
2018-02-13T12:19:55.123Z,9.80
2018-02-13T12:21:01.288Z,10.75
2018-02-13T12:22:07.465Z,8.93
2018-02-13T12:23:16.476Z,8.75
2018-02-13T12:24:22.726Z,8.88
2018-02-13T12:25:39.954Z,9.57
2018-02-13T12:26:45.745Z,9.05
2018-02-13T12:27:51.908Z,9.07
2018-02-13T12:28:58.118Z,8.70
2018-02-13T12:30:03.924Z,7.55
2018-02-13T12:31:09.723Z,7.80
2018-02-13T12:32:15.920Z,7.87
2018-02-13T12:33:22.123Z,7.80
2018-02-13T12:34:28.290Z,7.57
2018-02-13T12:35:34.473Z,6.60
2018-02-13T12:36:40.620Z,7.40
2018-02-13T12:37:46.760Z,7.35
2018-02-13T12:38:52.587Z,8.52
2018-02-13T12:39:58.395Z,8.40
2018-02-13T12:41:04.552Z,7.65
2018-02-13T12:42:10.727Z,9.15
2018-02-13T12:43:17.271Z,8.48
2018-02-13T12:44:22.713Z,7.20
2018-02-13T12:45:28.851Z,6.70
2018-02-13T12:46:35.003Z,6.87
2018-02-13T12:47:40.804Z,6.60
2018-02-13T12:48:46.561Z,6.32
2018-02-13T12:49:52.756Z,6.75
2018-02-13T12:50:58.884Z,6.47
2018-02-13T12:52:04.699Z,6.15
2018-02-13T12:53:10.864Z,6.78
2018-02-13T12:54:17.037Z,6.50
2018-02-13T12:55:23.046Z,6.45
2018-02-13T12:56:28.826Z,6.82
2018-02-13T12:57:34.710Z,7.20
2018-02-13T12:58:40.868Z,6.87
2018-02-13T12:59:46.993Z,7.53
2018-02-13T13:00:53.126Z,8.43
2018-02-13T13:01:59.239Z,7.43
2018-02-13T13:03:05.473Z,7.53
2018-02-13T13:04:11.757Z,7.25
2018-02-13T13:05:17.955Z,6.70
2018-02-13T13:06:24.111Z,6.12
2018-02-13T13:07:30.253Z,6.05
2018-02-13T13:08:36.428Z,5.60
2018-02-13T13:09:42.572Z,6.22
2018-02-13T13:10:48.701Z,5.97
2018-02-13T13:11:54.821Z,5.60
2018-02-13T13:13:00.970Z,5.05
2018-02-13T13:14:07.127Z,6.10
2018-02-13T13:15:17.141Z,5.15
2018-02-13T13:16:23.307Z,5.25
2018-02-13T13:17:29.397Z,6.10
2018-02-13T13:18:35.554Z,5.75
2018-02-13T13:19:41.736Z,5.78
2018-02-13T13:20:47.875Z,5.57
2018-02-13T13:21:53.991Z,5.12
2018-02-13T13:23:00.374Z,5.50
2018-02-13T13:24:06.564Z,5.43
2018-02-13T13:25:12.665Z,5.40
2018-02-13T13:26:18.836Z,5.20
2018-02-13T13:27:25.104Z,5.53
2018-02-13T13:28:31.247Z,5.62
2018-02-13T13:29:37.431Z,4.22
2018-02-13T13:30:43.538Z,4.60
2018-02-13T13:31:49.652Z,5.43
2018-02-13T13:32:55.767Z,5.40
2018-02-13T13:34:01.926Z,5.80
2018-02-13T13:35:08.081Z,5.85
2018-02-13T13:36:14.240Z,5.15
2018-02-13T13:37:20.425Z,5.05
2018-02-13T13:38:26.557Z,4.82
2018-02-13T13:39:32.732Z,5.22
2018-02-13T13:40:38.900Z,4.95
2018-02-13T13:41:45.051Z,5.65
2018-02-13T13:42:51.277Z,5.28
2018-02-13T13:43:57.149Z,5.75
2018-02-13T13:45:05.100Z,6.90
2018-02-13T13:46:11.245Z,5.90
2018-02-13T13:47:17.432Z,5.87
2018-02-13T13:48:23.686Z,6.05
2018-02-13T13:49:30.013Z,5.62
2018-02-13T13:50:35.926Z,5.90
2018-02-13T13:51:42.065Z,5.78
2018-02-13T13:52:47.815Z,7.12
2018-02-13T13:53:53.950Z,6.50
2018-02-13T13:55:00.089Z,6.03
2018-02-13T13:56:06.244Z,5.97
2018-02-13T13:57:12.380Z,5.82
2018-02-13T13:58:18.496Z,6.05
2018-02-13T13:59:24.647Z,6.78
2018-02-13T14:00:30.784Z,7.30
2018-02-13T14:01:36.922Z,5.85
2018-02-13T14:02:43.077Z,6.72
2018-02-13T14:03:49.196Z,5.57
2018-02-13T14:04:54.987Z,4.28
2018-02-13T14:06:01.185Z,4.45
2018-02-13T14:07:07.370Z,3.85
2018-02-13T14:08:18.262Z,5.50
2018-02-13T14:09:24.411Z,6.10
2018-02-13T14:10:30.511Z,6.40
2018-02-13T14:11:36.661Z,7.30
2018-02-13T14:12:45.873Z,6.60
2018-02-13T14:13:51.999Z,6.95
2018-02-13T14:14:58.122Z,5.90
2018-02-13T14:16:07.536Z,6.55
2018-02-13T14:17:13.548Z,6.37
2018-02-13T14:18:19.545Z,7.15
2018-02-13T14:19:25.724Z,5.95
2018-02-13T14:20:31.879Z,6.35
2018-02-13T14:21:37.851Z,6.93
2018-02-13T14:22:43.946Z,5.37
2018-02-13T14:23:50.056Z,5.80
2018-02-13T14:24:56.223Z,7.25
2018-02-13T14:26:02.383Z,7.50
2018-02-13T14:27:08.496Z,7.95
2018-02-13T14:28:13.922Z,7.12
2018-02-13T14:29:19.428Z,7.05